TimeCST,TemperatureF,Dew PointF,Humidity,Sea Level PressureIn,VisibilityMPH,Wind Direction,Wind SpeedMPH,Gust SpeedMPH,PrecipitationIn,Events,Conditions,WindDirDegrees,DateUTC
12:53 AM,54.0,42.1,64,30.28,10.0,NNW,6.9,-,N/A,,Overcast,340,2013-12-13 06:53:00
1:22 AM,53.6,42.8,67,30.27,10.0,NNW,8.1,-,N/A,,Overcast,330,2013-12-13 07:22:00
1:53 AM,54.0,44.1,69,30.24,10.0,NNW,5.8,-,N/A,,Overcast,340,2013-12-13 07:53:00
2:53 AM,54.0,44.1,69,30.22,10.0,NNW,4.6,-,N/A,,Overcast,330,2013-12-13 08:53:00
3:53 AM,54.0,45.0,72,30.19,10.0,North,5.8,-,N/A,,Overcast,350,2013-12-13 09:53:00
4:53 AM,53.1,45.0,74,30.16,10.0,Calm,Calm,-,N/A,,Mostly Cloudy,0,2013-12-13 10:53:00
5:53 AM,51.1,45.0,80,30.15,10.0,North,3.5,-,N/A,,Clear,10,2013-12-13 11:53:00
6:53 AM,50.0,45.0,83,30.14,10.0,North,3.5,-,N/A,,Clear,360,2013-12-13 12:53:00
7:53 AM,52.0,46.0,80,30.15,10.0,West,5.8,-,N/A,,Scattered Clouds,280,2013-12-13 13:53:00
8:09 AM,53.6,46.4,77,30.15,10.0,WNW,5.8,-,N/A,,Mostly Cloudy,290,2013-12-13 14:09:00
8:53 AM,55.0,46.9,74,30.15,10.0,North,3.5,-,N/A,,Overcast,350,2013-12-13 14:53:00
9:50 AM,60.8,50.0,68,30.13,10.0,Calm,Calm,-,N/A,,Scattered Clouds,0,2013-12-13 15:50:00
9:53 AM,62.1,50.0,65,30.13,10.0,Calm,Calm,-,N/A,,Partly Cloudy,0,2013-12-13 15:53:00
10:53 AM,66.9,55.0,66,30.09,10.0,Variable,4.6,-,N/A,,Clear,0,2013-12-13 16:53:00
11:53 AM,73.0,57.9,59,30.04,10.0,SSE,10.4,-,N/A,,Clear,160,2013-12-13 17:53:00
12:53 PM,75.0,57.9,55,29.99,10.0,South,13.8,-,N/A,,Clear,190,2013-12-13 18:53:00
1:53 PM,75.0,60.1,60,29.96,10.0,South,17.3,-,N/A,,Clear,180,2013-12-13 19:53:00
2:53 PM,75.0,60.1,60,29.92,10.0,South,15.0,25.3,N/A,,Clear,180,2013-12-13 20:53:00
3:53 PM,73.0,60.1,64,29.89,10.0,SSE,16.1,-,N/A,,Clear,160,2013-12-13 21:53:00
4:53 PM,69.1,62.1,78,29.91,10.0,South,15.0,-,N/A,,Clear,170,2013-12-13 22:53:00
5:53 PM,68.0,63.0,84,29.89,10.0,SSE,11.5,-,N/A,,Clear,160,2013-12-13 23:53:00
6:53 PM,68.0,64.0,87,29.89,10.0,SSE,13.8,-,N/A,,Clear,160,2013-12-14 00:53:00
7:53 PM,68.0,64.9,90,29.90,10.0,South,11.5,-,N/A,,Clear,170,2013-12-14 01:53:00
8:53 PM,69.1,64.9,87,29.92,10.0,South,10.4,-,N/A,,Clear,170,2013-12-14 02:53:00
9:53 PM,68.0,64.9,90,29.91,10.0,South,12.7,-,N/A,,Clear,170,2013-12-14 03:53:00
10:53 PM,68.0,64.9,90,29.90,10.0,South,11.5,-,N/A,,Clear,170,2013-12-14 04:53:00
11:53 PM,66.9,64.9,93,29.89,10.0,South,9.2,-,N/A,,Clear,190,2013-12-14 05:53:00